^^
Meteo Knjazevac Station Historical Data
Daily Summary for April 8, 2021 Units:  Both    English   Metric
Daily Weekly Monthly Yearly Custom
  High: Low: Average:
Temperature: 90 °F /  32.2 °C 62.2 °F /  16.8 °C 70.1 °F /  21.2 °C
Dew Point: 75.7 °F /  24.3 °C 59.6 °F /  15.3 °C 65.3 °F /  18.5 °C
Humidity: 94% 63% 85%
Wind Speed: 6mph /  9.7km/h - 1.2mph /  1.9km/h
Wind Gust: 9mph /  14.5km/h - -
Wind- - South
Pressure: 30.20 in /  1022.6 hPa 30.12 in /  1019.9 hPa -
Precipitation: 0.00 in /  0 mm    
Historical Graphs
 
 
Tabular Data for April 8, 2021
Time Temperature Dew Point Pressure Wind Wind Speed Wind Gust Humidity Rainfall Rate (Hourly) solar Conditions
00:00 69.8 °F /  21 °C 64.4 °F /  18 °C 30.12in /  1019.9hPa West 1mph /  1.6km/h 2mph /  3.2km/h 83% 0.00in /  0mm 0 W/m2
00:10 69.3 °F /  20.7 °C 63.9 °F /  17.7 °C 30.12in /  1019.9hPa West 1mph /  1.6km/h 3mph /  4.8km/h 83% 0.00in /  0mm 0 W/m2
00:20 68.7 °F /  20.4 °C 63.7 °F /  17.6 °C 30.12in /  1019.9hPa Calm   1mph /  1.6km/h 84% 0.00in /  0mm 0 W/m2
00:30 68.5 °F /  20.3 °C 63.5 °F /  17.5 °C 30.12in /  1019.9hPa Calm   1mph /  1.6km/h 84% 0.00in /  0mm 0 W/m2
00:40 68.2 °F /  20.1 °C 63.5 °F /  17.5 °C 30.13in /  1020.2hPa WSW 1mph /  1.6km/h 2mph /  3.2km/h 85% 0.00in /  0mm 0 W/m2
00:50 67.8 °F /  19.9 °C 63.1 °F /  17.3 °C 30.13in /  1020.2hPa Calm   2mph /  3.2km/h 85% 0.00in /  0mm 0 W/m2
01:00 67.8 °F /  19.9 °C 63.1 °F /  17.3 °C 30.12in /  1019.9hPa Calm   1mph /  1.6km/h 85% 0.00in /  0mm 0 W/m2
01:10 67.3 °F /  19.6 °C 62.6 °F /  17 °C 30.13in /  1020.2hPa Calm   2mph /  3.2km/h 85% 0.00in /  0mm 0 W/m2
01:20 66.9 °F /  19.4 °C 62.6 °F /  17 °C 30.13in /  1020.2hPa Calm   2mph /  3.2km/h 86% 0.00in /  0mm 0 W/m2
01:30 66.7 °F /  19.3 °C 62.4 °F /  16.9 °C 30.13in /  1020.2hPa WNW 1mph /  1.6km/h 2mph /  3.2km/h 86% 0.00in /  0mm 0 W/m2
01:40 66.2 °F /  19 °C 61.9 °F /  16.6 °C 30.13in /  1020.2hPa West 1mph /  1.6km/h 3mph /  4.8km/h 86% 0.00in /  0mm 0 W/m2
01:50 66 °F /  18.9 °C 62.4 °F /  16.9 °C 30.13in /  1020.2hPa West 1mph /  1.6km/h 4mph /  6.4km/h 88% 0.00in /  0mm 0 W/m2
02:00 65.6 °F /  18.7 °C 62 °F /  16.7 °C 30.13in /  1020.2hPa WSW 2mph /  3.2km/h 3mph /  4.8km/h 88% 0.00in /  0mm 0 W/m2
02:10 65.3 °F /  18.5 °C 61.9 °F /  16.6 °C 30.14in /  1020.5hPa West 2mph /  3.2km/h 3mph /  4.8km/h 89% 0.00in /  0mm 0 W/m2
02:20 65.1 °F /  18.4 °C 61.8 °F /  16.6 °C 30.14in /  1020.5hPa WSW 2mph /  3.2km/h 3mph /  4.8km/h 89% 0.00in /  0mm 0 W/m2
02:30 64.9 °F /  18.3 °C 61.6 °F /  16.4 °C 30.14in /  1020.5hPa West 2mph /  3.2km/h 4mph /  6.4km/h 89% 0.00in /  0mm 0 W/m2
02:40 64.9 °F /  18.3 °C 61.6 °F /  16.4 °C 30.14in /  1020.5hPa West 2mph /  3.2km/h 4mph /  6.4km/h 89% 0.00in /  0mm 0 W/m2
02:50 64.8 °F /  18.2 °C 61.5 °F /  16.4 °C 30.14in /  1020.5hPa West 2mph /  3.2km/h 3mph /  4.8km/h 89% 0.00in /  0mm 0 W/m2
03:00 64.7 °F /  18.2 °C 61.4 °F /  16.3 °C 30.14in /  1020.5hPa WNW 1mph /  1.6km/h 2mph /  3.2km/h 89% 0.00in /  0mm 0 W/m2
03:10 64.6 °F /  18.1 °C 61.3 °F /  16.3 °C 30.14in /  1020.5hPa Calm   1mph /  1.6km/h 89% 0.00in /  0mm 0 W/m2
03:20 64.6 °F /  18.1 °C 61.3 °F /  16.3 °C 30.14in /  1020.5hPa Calm     89% 0.00in /  0mm 0 W/m2
03:30 64 °F /  17.8 °C 61 °F /  16.1 °C 30.14in /  1020.5hPa Calm   2mph /  3.2km/h 90% 0.00in /  0mm 0 W/m2
03:40 64 °F /  17.8 °C 61 °F /  16.1 °C 30.14in /  1020.5hPa Calm     90% 0.00in /  0mm 0 W/m2
03:50 64 °F /  17.8 °C 61 °F /  16.1 °C 30.14in /  1020.5hPa Calm   2mph /  3.2km/h 90% 0.00in /  0mm 0 W/m2
04:00 64 °F /  17.8 °C 61.4 °F /  16.3 °C 30.14in /  1020.5hPa Calm   2mph /  3.2km/h 91% 0.00in /  0mm 0 W/m2
04:10 63.7 °F /  17.6 °C 60.7 °F /  15.9 °C 30.15in /  1020.9hPa Calm   1mph /  1.6km/h 90% 0.00in /  0mm 0 W/m2
04:20 63.5 °F /  17.5 °C 60.5 °F /  15.8 °C 30.15in /  1020.9hPa Calm   1mph /  1.6km/h 90% 0.00in /  0mm 0 W/m2
04:30 63.3 °F /  17.4 °C 60.6 °F /  15.9 °C 30.15in /  1020.9hPa SW 1mph /  1.6km/h 2mph /  3.2km/h 91% 0.00in /  0mm 0 W/m2
04:40 63 °F /  17.2 °C 60.3 °F /  15.7 °C 30.15in /  1020.9hPa Calm   2mph /  3.2km/h 91% 0.00in /  0mm 0 W/m2
04:50 63 °F /  17.2 °C 60.3 °F /  15.7 °C 30.16in /  1021.2hPa NNW 1mph /  1.6km/h 2mph /  3.2km/h 91% 0.00in /  0mm 0 W/m2
05:00 62.8 °F /  17.1 °C 60.1 °F /  15.6 °C 30.16in /  1021.2hPa Calm   2mph /  3.2km/h 91% 0.00in /  0mm 4 W/m2
05:10 62.4 °F /  16.9 °C 59.8 °F /  15.4 °C 30.16in /  1021.2hPa Calm   2mph /  3.2km/h 91% 0.00in /  0mm 9 W/m2
05:20 62.2 °F /  16.8 °C 59.6 °F /  15.3 °C 30.17in /  1021.6hPa Calm   1mph /  1.6km/h 91% 0.00in /  0mm 16 W/m2
05:30 62.2 °F /  16.8 °C 60.2 °F /  15.7 °C 30.17in /  1021.6hPa Calm   2mph /  3.2km/h 93% 0.00in /  0mm 25 W/m2
05:40 62.4 °F /  16.9 °C 60.4 °F /  15.8 °C 30.17in /  1021.6hPa Calm     93% 0.00in /  0mm 36 W/m2
05:50 62.4 °F /  16.9 °C 60.4 °F /  15.8 °C 30.17in /  1021.6hPa Calm   1mph /  1.6km/h 93% 0.00in /  0mm 47 W/m2
06:00 62.4 °F /  16.9 °C 60.4 °F /  15.8 °C 30.18in /  1021.9hPa Calm   2mph /  3.2km/h 93% 0.00in /  0mm 65 W/m2
06:10 62.4 °F /  16.9 °C 60.7 °F /  15.9 °C 30.18in /  1021.9hPa WNW 1mph /  1.6km/h 2mph /  3.2km/h 94% 0.00in /  0mm 95 W/m2
06:20 62.6 °F /  17 °C 60.8 °F /  16 °C 30.19in /  1022.2hPa Calm   1mph /  1.6km/h 94% 0.00in /  0mm 118 W/m2
06:30 62.8 °F /  17.1 °C 61 °F /  16.1 °C 30.19in /  1022.2hPa NW 1mph /  1.6km/h 2mph /  3.2km/h 94% 0.00in /  0mm 140 W/m2
06:40 63 °F /  17.2 °C 61.2 °F /  16.2 °C 30.19in /  1022.2hPa Calm   2mph /  3.2km/h 94% 0.00in /  0mm 161 W/m2
06:50 63.3 °F /  17.4 °C 61.6 °F /  16.4 °C 30.19in /  1022.2hPa Calm   1mph /  1.6km/h 94% 0.00in /  0mm 191 W/m2
07:00 63.7 °F /  17.6 °C 61.9 °F /  16.6 °C 30.19in /  1022.2hPa Calm     94% 0.00in /  0mm 220 W/m2
07:10 64.1 °F /  17.8 °C 62.3 °F /  16.8 °C 30.19in /  1022.2hPa Calm   2mph /  3.2km/h 94% 0.00in /  0mm 255 W/m2
07:20 64.6 °F /  18.1 °C 62.9 °F /  17.2 °C 30.19in /  1022.2hPa West 2mph /  3.2km/h 4mph /  6.4km/h 94% 0.00in /  0mm 287 W/m2
07:30 65.3 °F /  18.5 °C 63.6 °F /  17.6 °C 30.19in /  1022.2hPa NW 1mph /  1.6km/h 3mph /  4.8km/h 94% 0.00in /  0mm 323 W/m2
07:40 66 °F /  18.9 °C 64.2 °F /  17.9 °C 30.19in /  1022.2hPa West 1mph /  1.6km/h 3mph /  4.8km/h 94% 0.00in /  0mm 364 W/m2
07:50 66.8 °F /  19.3 °C 64.7 °F /  18.2 °C 30.20in /  1022.6hPa WSW 1mph /  1.6km/h 3mph /  4.8km/h 93% 0.00in /  0mm 396 W/m2
08:00 67.5 °F /  19.7 °C 65.4 °F /  18.6 °C 30.20in /  1022.6hPa NW 1mph /  1.6km/h 2mph /  3.2km/h 93% 0.00in /  0mm 430 W/m2
08:10 68.4 °F /  20.2 °C 65.7 °F /  18.7 °C 30.20in /  1022.6hPa South 2mph /  3.2km/h 5mph /  8km/h 91% 0.00in /  0mm 460 W/m2
08:20 69.5 °F /  20.8 °C 66.7 °F /  19.3 °C 30.19in /  1022.2hPa SW 1mph /  1.6km/h 4mph /  6.4km/h 91% 0.00in /  0mm 505 W/m2
08:30 70 °F /  21.1 °C 67 °F /  19.4 °C 30.19in /  1022.2hPa NE 2mph /  3.2km/h 5mph /  8km/h 90% 0.00in /  0mm 537 W/m2
08:40 70.9 °F /  21.6 °C 67.8 °F /  19.9 °C 30.19in /  1022.2hPa ENE 3mph /  4.8km/h 7mph /  11.3km/h 90% 0.00in /  0mm 576 W/m2
08:50 72 °F /  22.2 °C 68.6 °F /  20.3 °C 30.19in /  1022.2hPa NE 2mph /  3.2km/h 8mph /  12.9km/h 89% 0.00in /  0mm 611 W/m2
09:00 73.4 °F /  23 °C 69 °F /  20.6 °C 30.19in /  1022.2hPa NNE 1mph /  1.6km/h 6mph /  9.7km/h 86% 0.00in /  0mm 644 W/m2
09:10 75.1 °F /  23.9 °C 70.2 °F /  21.2 °C 30.19in /  1022.2hPa NNW 1mph /  1.6km/h 5mph /  8km/h 85% 0.00in /  0mm 674 W/m2
09:20 76.6 °F /  24.8 °C 70.4 °F /  21.3 °C 30.19in /  1022.2hPa NE 3mph /  4.8km/h 7mph /  11.3km/h 81% 0.00in /  0mm 708 W/m2
09:30 77.6 °F /  25.3 °C 70.9 °F /  21.6 °C 30.19in /  1022.2hPa Calm   7mph /  11.3km/h 80% 0.00in /  0mm 733 W/m2
09:40 78.6 °F /  25.9 °C 71.6 °F /  22 °C 30.19in /  1022.2hPa SSE 3mph /  4.8km/h 6mph /  9.7km/h 79% 0.00in /  0mm 757 W/m2
09:50 79.4 °F /  26.3 °C 72.3 °F /  22.4 °C 30.19in /  1022.2hPa SE 2mph /  3.2km/h 5mph /  8km/h 79% 0.00in /  0mm 780 W/m2
10:00 80.3 °F /  26.8 °C 72.4 °F /  22.4 °C 30.19in /  1022.2hPa Calm   5mph /  8km/h 77% 0.00in /  0mm 801 W/m2
10:10 80.8 °F /  27.1 °C 72.5 °F /  22.5 °C 30.19in /  1022.2hPa SW 1mph /  1.6km/h 6mph /  9.7km/h 76% 0.00in /  0mm 822 W/m2
10:20 81.9 °F /  27.7 °C 72.8 °F /  22.7 °C 30.18in /  1021.9hPa Calm   6mph /  9.7km/h 74% 0.00in /  0mm 841 W/m2
10:30 82.8 °F /  28.2 °C 73.2 °F /  22.9 °C 30.18in /  1021.9hPa NNE 3mph /  4.8km/h 7mph /  11.3km/h 73% 0.00in /  0mm 860 W/m2
10:40 83.7 °F /  28.7 °C 73.7 °F /  23.2 °C 30.18in /  1021.9hPa NNE 3mph /  4.8km/h 9mph /  14.5km/h 72% 0.00in /  0mm 876 W/m2
10:50 84.8 °F /  29.3 °C 73.9 °F /  23.3 °C 30.18in /  1021.9hPa NE 1mph /  1.6km/h 6mph /  9.7km/h 70% 0.00in /  0mm 553 W/m2
11:00 85.5 °F /  29.7 °C 74.6 °F /  23.7 °C 30.17in /  1021.6hPa NNE 5mph /  8km/h 6mph /  9.7km/h 70% 0.00in /  0mm 906 W/m2
11:10 86.1 °F /  30.1 °C 74.3 °F /  23.5 °C 30.17in /  1021.6hPa NNE 3mph /  4.8km/h 7mph /  11.3km/h 68% 0.00in /  0mm 919 W/m2
11:20 86.8 °F /  30.4 °C 74.9 °F /  23.8 °C 30.17in /  1021.6hPa North 2mph /  3.2km/h 7mph /  11.3km/h 68% 0.00in /  0mm 267 W/m2
11:30 87.4 °F /  30.8 °C 74.7 °F /  23.7 °C 30.17in /  1021.6hPa NNE 6mph /  9.7km/h 8mph /  12.9km/h 66% 0.00in /  0mm 941 W/m2
11:40 87.9 °F /  31.1 °C 75.5 °F /  24.2 °C 30.17in /  1021.6hPa North 2mph /  3.2km/h 8mph /  12.9km/h 67% 0.00in /  0mm 950 W/m2
11:50 88.7 °F /  31.5 °C 75.5 °F /  24.2 °C 30.17in /  1021.6hPa NNE 3mph /  4.8km/h 6mph /  9.7km/h 65% 0.00in /  0mm 957 W/m2
12:00 89.1 °F /  31.7 °C 75.3 °F /  24.1 °C 30.16in /  1021.2hPa NE 6mph /  9.7km/h 7mph /  11.3km/h 64% 0.00in /  0mm 962 W/m2
12:10 90 °F /  32.2 °C 75.7 °F /  24.3 °C 30.16in /  1021.2hPa NNE 3mph /  4.8km/h 8mph /  12.9km/h 63% 0.00in /  0mm 967 W/m2
Knjazevac, Serbia
Compliments of Weather Underground - 2 mb